sensor_id;sensor_type;location;lat;lon;timestamp;temperature;humidity
67752;DHT22;54551;51.068;5.826;2023-01-01T00:01:26;16.80;99.90
67752;DHT22;54551;51.068;5.826;2023-01-01T00:03:54;16.80;99.90
67752;DHT22;54551;51.068;5.826;2023-01-01T00:06:21;16.80;99.90
67752;DHT22;54551;51.068;5.826;2023-01-01T00:08:47;16.70;99.90
67752;DHT22;54551;51.068;5.826;2023-01-01T00:11:14;16.60;99.90
67752;DHT22;54551;51.068;5.826;2023-01-01T00:13:41;16.60;99.90
67752;DHT22;54551;51.068;5.826;2023-01-01T00:16:12;16.50;99.90
67752;DHT22;54551;51.068;5.826;2023-01-01T00:18:39;16.50;99.90
67752;DHT22;54551;51.068;5.826;2023-01-01T00:21:08;16.40;99.90
67752;DHT22;54551;51.068;5.826;2023-01-01T00:23:34;16.30;99.90
67752;DHT22;54551;51.068;5.826;2023-01-01T00:26:00;16.30;99.90
67752;DHT22;54551;51.068;5.826;2023-01-01T00:28:27;16.30;99.90
67752;DHT22;54551;51.068;5.826;2023-01-01T00:30:52;16.20;99.90
67752;DHT22;54551;51.068;5.826;2023-01-01T00:33:18;16.20;99.90
67752;DHT22;54551;51.068;5.826;2023-01-01T00:35:44;16.20;99.90
67752;DHT22;54551;51.068;5.826;2023-01-01T00:38:10;16.20;99.90
67752;DHT22;54551;51.068;5.826;2023-01-01T00:40:36;16.20;99.90
67752;DHT22;54551;51.068;5.826;2023-01-01T00:43:02;16.10;99.90
67752;DHT22;54551;51.068;5.826;2023-01-01T00:45:28;16.20;99.90
67752;DHT22;54551;51.068;5.826;2023-01-01T00:47:54;16.20;99.90
67752;DHT22;54551;51.068;5.826;2023-01-01T00:50:20;16.10;99.90
67752;DHT22;54551;51.068;5.826;2023-01-01T00:52:47;16.10;99.90
67752;DHT22;54551;51.068;5.826;2023-01-01T00:55:13;16.10;99.90
67752;DHT22;54551;51.068;5.826;2023-01-01T00:57:40;16.10;99.90
67752;DHT22;54551;51.068;5.826;2023-01-01T01:00:06;16.10;99.90
67752;DHT22;54551;51.068;5.826;2023-01-01T01:02:33;16.10;99.90
67752;DHT22;54551;51.068;5.826;2023-01-01T01:04:58;16.10;99.90
67752;DHT22;54551;51.068;5.826;2023-01-01T01:07:26;16.00;99.90
67752;DHT22;54551;51.068;5.826;2023-01-01T01:09:51;16.00;99.90
67752;DHT22;54551;51.068;5.826;2023-01-01T01:12:17;16.00;99.90
67752;DHT22;54551;51.068;5.826;2023-01-01T01:14:43;15.90;99.90
67752;DHT22;54551;51.068;5.826;2023-01-01T01:17:09;15.90;99.90
67752;DHT22;54551;51.068;5.826;2023-01-01T01:19:35;15.90;99.90
67752;DHT22;54551;51.068;5.826;2023-01-01T01:22:01;15.90;99.90
67752;DHT22;54551;51.068;5.826;2023-01-01T01:24:28;15.90;99.90
67752;DHT22;54551;51.068;5.826;2023-01-01T01:26:54;15.80;99.90
67752;DHT22;54551;51.068;5.826;2023-01-01T01:29:20;15.80;99.90
67752;DHT22;54551;51.068;5.826;2023-01-01T01:31:46;15.80;99.90
67752;DHT22;54551;51.068;5.826;2023-01-01T01:34:11;15.80;99.90
67752;DHT22;54551;51.068;5.826;2023-01-01T01:36:37;15.80;99.90
67752;DHT22;54551;51.068;5.826;2023-01-01T01:39:03;15.80;99.90
67752;DHT22;54551;51.068;5.826;2023-01-01T01:41:29;15.90;99.90
67752;DHT22;54551;51.068;5.826;2023-01-01T01:44:00;15.90;99.90
67752;DHT22;54551;51.068;5.826;2023-01-01T01:49:04;15.90;99.90
67752;DHT22;54551;51.068;5.826;2023-01-01T01:51:36;15.90;99.90
67752;DHT22;54551;51.068;5.826;2023-01-01T01:54:08;15.90;99.90
67752;DHT22;54551;51.068;5.826;2023-01-01T01:56:44;16.00;99.90
67752;DHT22;54551;51.068;5.826;2023-01-01T01:59:12;16.00;99.90
67752;DHT22;54551;51.068;5.826;2023-01-01T02:01:39;16.00;99.90
67752;DHT22;54551;51.068;5.826;2023-01-01T02:04:06;15.90;99.90
67752;DHT22;54551;51.068;5.826;2023-01-01T02:06:34;15.90;99.90
67752;DHT22;54551;51.068;5.826;2023-01-01T02:09:03;15.90;99.90
67752;DHT22;54551;51.068;5.826;2023-01-01T02:11:29;15.90;99.90
67752;DHT22;54551;51.068;5.826;2023-01-01T02:13:56;15.90;99.90
67752;DHT22;54551;51.068;5.826;2023-01-01T02:21:57;15.90;99.90
67752;DHT22;54551;51.068;5.826;2023-01-01T02:30:09;15.90;99.90
67752;DHT22;54551;51.068;5.826;2023-01-01T02:32:53;15.90;99.90
67752;DHT22;54551;51.068;5.826;2023-01-01T02:35:34;15.90;99.90
67752;DHT22;54551;51.068;5.826;2023-01-01T02:38:30;15.90;99.90
67752;DHT22;54551;51.068;5.826;2023-01-01T02:41:11;15.90;99.90
67752;DHT22;54551;51.068;5.826;2023-01-01T02:43:39;15.90;99.90
67752;DHT22;54551;51.068;5.826;2023-01-01T02:46:06;15.80;99.90
67752;DHT22;54551;51.068;5.826;2023-01-01T02:48:50;15.80;99.90
67752;DHT22;54551;51.068;5.826;2023-01-01T02:57:09;15.70;99.90
67752;DHT22;54551;51.068;5.826;2023-01-01T03:00:04;15.70;99.90
67752;DHT22;54551;51.068;5.826;2023-01-01T03:05:46;15.70;99.90
67752;DHT22;54551;51.068;5.826;2023-01-01T03:17:32;15.50;99.90
67752;DHT22;54551;51.068;5.826;2023-01-01T03:19:58;15.50;99.90
67752;DHT22;54551;51.068;5.826;2023-01-01T03:22:29;15.50;99.90
67752;DHT22;54551;51.068;5.826;2023-01-01T03:25:13;15.50;99.90
67752;DHT22;54551;51.068;5.826;2023-01-01T03:27:51;15.50;99.90
67752;DHT22;54551;51.068;5.826;2023-01-01T03:30:20;15.50;99.90
67752;DHT22;54551;51.068;5.826;2023-01-01T03:32:51;15.50;99.90
67752;DHT22;54551;51.068;5.826;2023-01-01T03:35:42;15.50;99.90
67752;DHT22;54551;51.068;5.826;2023-01-01T03:38:30;15.60;99.90
67752;DHT22;54551;51.068;5.826;2023-01-01T03:41:10;15.60;99.90
67752;DHT22;54551;51.068;5.826;2023-01-01T03:43:54;15.60;99.90
67752;DHT22;54551;51.068;5.826;2023-01-01T03:46:24;15.60;99.90
67752;DHT22;54551;51.068;5.826;2023-01-01T03:48:51;15.60;99.90
67752;DHT22;54551;51.068;5.826;2023-01-01T03:53:52;15.60;99.90
67752;DHT22;54551;51.068;5.826;2023-01-01T03:59:29;15.60;99.90
67752;DHT22;54551;51.068;5.826;2023-01-01T04:02:01;15.60;99.90
67752;DHT22;54551;51.068;5.826;2023-01-01T04:04:29;15.60;99.90
67752;DHT22;54551;51.068;5.826;2023-01-01T04:06:56;15.60;99.90
67752;DHT22;54551;51.068;5.826;2023-01-01T04:09:29;15.60;99.90
67752;DHT22;54551;51.068;5.826;2023-01-01T04:11:56;15.60;99.90
67752;DHT22;54551;51.068;5.826;2023-01-01T04:14:42;15.50;99.90
67752;DHT22;54551;51.068;5.826;2023-01-01T04:17:09;15.60;99.90
67752;DHT22;54551;51.068;5.826;2023-01-01T04:19:35;15.60;99.90
67752;DHT22;54551;51.068;5.826;2023-01-01T04:22:02;15.60;99.90
67752;DHT22;54551;51.068;5.826;2023-01-01T04:24:28;15.60;99.90
67752;DHT22;54551;51.068;5.826;2023-01-01T04:26:54;15.50;99.90
67752;DHT22;54551;51.068;5.826;2023-01-01T04:29:21;15.50;99.90
67752;DHT22;54551;51.068;5.826;2023-01-01T04:31:47;15.50;99.90
67752;DHT22;54551;51.068;5.826;2023-01-01T04:34:13;15.50;99.90
67752;DHT22;54551;51.068;5.826;2023-01-01T04:36:39;15.40;99.90
67752;DHT22;54551;51.068;5.826;2023-01-01T04:39:06;15.50;99.90
67752;DHT22;54551;51.068;5.826;2023-01-01T04:41:32;15.40;99.90
67752;DHT22;54551;51.068;5.826;2023-01-01T04:43:59;15.40;99.90
67752;DHT22;54551;51.068;5.826;2023-01-01T04:46:25;15.40;99.90
67752;DHT22;54551;51.068;5.826;2023-01-01T04:48:51;15.40;99.90
67752;DHT22;54551;51.068;5.826;2023-01-01T04:51:18;15.40;99.90
67752;DHT22;54551;51.068;5.826;2023-01-01T04:53:44;15.30;99.90
67752;DHT22;54551;51.068;5.826;2023-01-01T04:56:16;15.40;99.90
67752;DHT22;54551;51.068;5.826;2023-01-01T04:58:43;15.30;99.90
67752;DHT22;54551;51.068;5.826;2023-01-01T05:01:18;15.30;99.90
67752;DHT22;54551;51.068;5.826;2023-01-01T05:03:45;15.30;99.90
67752;DHT22;54551;51.068;5.826;2023-01-01T05:06:12;15.40;99.90
67752;DHT22;54551;51.068;5.826;2023-01-01T05:08:39;15.40;99.90
67752;DHT22;54551;51.068;5.826;2023-01-01T05:11:08;15.40;99.90
67752;DHT22;54551;51.068;5.826;2023-01-01T05:13:40;15.40;99.90
67752;DHT22;54551;51.068;5.826;2023-01-01T05:16:08;15.40;99.90
67752;DHT22;54551;51.068;5.826;2023-01-01T05:18:35;15.40;99.90
67752;DHT22;54551;51.068;5.826;2023-01-01T05:21:03;15.40;99.90
67752;DHT22;54551;51.068;5.826;2023-01-01T05:23:30;15.40;99.90
67752;DHT22;54551;51.068;5.826;2023-01-01T05:25:56;15.40;99.90
67752;DHT22;54551;51.068;5.826;2023-01-01T05:28:22;15.40;99.90
67752;DHT22;54551;51.068;5.826;2023-01-01T05:30:52;15.40;99.90
67752;DHT22;54551;51.068;5.826;2023-01-01T05:33:19;15.40;99.90
67752;DHT22;54551;51.068;5.826;2023-01-01T05:35:45;15.40;99.90
67752;DHT22;54551;51.068;5.826;2023-01-01T05:38:17;15.40;99.90
67752;DHT22;54551;51.068;5.826;2023-01-01T05:40:43;15.40;99.90
67752;DHT22;54551;51.068;5.826;2023-01-01T05:43:09;15.40;99.90
67752;DHT22;54551;51.068;5.826;2023-01-01T05:45:34;15.30;99.90
67752;DHT22;54551;51.068;5.826;2023-01-01T05:48:00;15.40;99.90
67752;DHT22;54551;51.068;5.826;2023-01-01T05:50:27;15.30;99.90
67752;DHT22;54551;51.068;5.826;2023-01-01T05:52:53;15.40;99.90
67752;DHT22;54551;51.068;5.826;2023-01-01T05:55:19;15.40;99.90
67752;DHT22;54551;51.068;5.826;2023-01-01T05:57:44;15.30;99.90
67752;DHT22;54551;51.068;5.826;2023-01-01T06:00:11;15.40;99.90
67752;DHT22;54551;51.068;5.826;2023-01-01T06:02:37;15.30;99.90
67752;DHT22;54551;51.068;5.826;2023-01-01T06:05:04;15.40;99.90
67752;DHT22;54551;51.068;5.826;2023-01-01T06:07:30;15.30;99.90
67752;DHT22;54551;51.068;5.826;2023-01-01T06:09:56;15.30;99.90
67752;DHT22;54551;51.068;5.826;2023-01-01T06:12:21;15.30;99.90
67752;DHT22;54551;51.068;5.826;2023-01-01T06:14:47;15.40;99.90
67752;DHT22;54551;51.068;5.826;2023-01-01T06:17:13;15.30;99.90
67752;DHT22;54551;51.068;5.826;2023-01-01T06:19:39;15.30;99.90
67752;DHT22;54551;51.068;5.826;2023-01-01T06:22:05;15.30;99.90
67752;DHT22;54551;51.068;5.826;2023-01-01T06:24:31;15.30;99.90
67752;DHT22;54551;51.068;5.826;2023-01-01T06:26:57;15.30;99.90
67752;DHT22;54551;51.068;5.826;2023-01-01T06:29:23;15.30;99.90
67752;DHT22;54551;51.068;5.826;2023-01-01T06:31:49;15.30;99.90
67752;DHT22;54551;51.068;5.826;2023-01-01T06:34:15;15.30;99.90
67752;DHT22;54551;51.068;5.826;2023-01-01T06:36:41;15.20;99.90
67752;DHT22;54551;51.068;5.826;2023-01-01T06:39:06;15.20;99.90
67752;DHT22;54551;51.068;5.826;2023-01-01T06:41:33;15.20;99.90
67752;DHT22;54551;51.068;5.826;2023-01-01T06:43:59;15.10;99.90
67752;DHT22;54551;51.068;5.826;2023-01-01T06:46:27;15.10;99.90
67752;DHT22;54551;51.068;5.826;2023-01-01T06:48:56;15.10;99.90
67752;DHT22;54551;51.068;5.826;2023-01-01T06:51:24;15.10;99.90
67752;DHT22;54551;51.068;5.826;2023-01-01T06:53:51;15.00;99.90
67752;DHT22;54551;51.068;5.826;2023-01-01T06:56:18;15.00;99.90
67752;DHT22;54551;51.068;5.826;2023-01-01T06:58:44;14.90;99.90
67752;DHT22;54551;51.068;5.826;2023-01-01T07:01:14;14.70;99.90
67752;DHT22;54551;51.068;5.826;2023-01-01T07:03:41;14.60;99.90
67752;DHT22;54551;51.068;5.826;2023-01-01T07:06:08;14.60;99.90
67752;DHT22;54551;51.068;5.826;2023-01-01T07:08:35;14.50;99.90
67752;DHT22;54551;51.068;5.826;2023-01-01T07:11:01;14.40;99.90
67752;DHT22;54551;51.068;5.826;2023-01-01T07:13:28;14.30;99.90
67752;DHT22;54551;51.068;5.826;2023-01-01T07:15:54;14.20;99.90
67752;DHT22;54551;51.068;5.826;2023-01-01T07:18:21;14.20;99.90
67752;DHT22;54551;51.068;5.826;2023-01-01T07:20:56;14.10;99.90
67752;DHT22;54551;51.068;5.826;2023-01-01T07:23:24;14.10;99.90
67752;DHT22;54551;51.068;5.826;2023-01-01T07:25:51;14.10;99.90
67752;DHT22;54551;51.068;5.826;2023-01-01T07:28:18;14.20;99.90
67752;DHT22;54551;51.068;5.826;2023-01-01T07:30:45;14.20;99.90
67752;DHT22;54551;51.068;5.826;2023-01-01T07:33:13;14.30;99.90
67752;DHT22;54551;51.068;5.826;2023-01-01T07:35:40;14.30;99.90
67752;DHT22;54551;51.068;5.826;2023-01-01T07:38:06;14.30;99.90
67752;DHT22;54551;51.068;5.826;2023-01-01T07:40:33;14.40;99.90
67752;DHT22;54551;51.068;5.826;2023-01-01T07:42:58;14.40;99.90
67752;DHT22;54551;51.068;5.826;2023-01-01T07:45:24;14.40;99.90
67752;DHT22;54551;51.068;5.826;2023-01-01T07:47:56;14.40;99.90
67752;DHT22;54551;51.068;5.826;2023-01-01T07:50:23;14.40;99.90
67752;DHT22;54551;51.068;5.826;2023-01-01T07:52:49;14.40;99.90
67752;DHT22;54551;51.068;5.826;2023-01-01T07:55:17;14.40;99.90
67752;DHT22;54551;51.068;5.826;2023-01-01T07:57:44;14.50;99.90
67752;DHT22;54551;51.068;5.826;2023-01-01T08:00:12;14.50;99.90
67752;DHT22;54551;51.068;5.826;2023-01-01T08:02:39;14.40;99.90
67752;DHT22;54551;51.068;5.826;2023-01-01T08:05:05;14.50;99.90
67752;DHT22;54551;51.068;5.826;2023-01-01T08:07:31;14.50;99.90
67752;DHT22;54551;51.068;5.826;2023-01-01T08:09:57;14.60;99.90
67752;DHT22;54551;51.068;5.826;2023-01-01T08:12:23;14.60;99.90
67752;DHT22;54551;51.068;5.826;2023-01-01T08:14:49;14.60;99.90
67752;DHT22;54551;51.068;5.826;2023-01-01T08:17:15;14.60;99.90
67752;DHT22;54551;51.068;5.826;2023-01-01T08:19:41;14.60;99.90
67752;DHT22;54551;51.068;5.826;2023-01-01T08:22:07;14.60;99.90
67752;DHT22;54551;51.068;5.826;2023-01-01T08:24:33;14.60;99.90
67752;DHT22;54551;51.068;5.826;2023-01-01T08:26:58;14.60;99.90
67752;DHT22;54551;51.068;5.826;2023-01-01T08:29:24;14.60;99.90
67752;DHT22;54551;51.068;5.826;2023-01-01T08:31:50;14.60;99.90
67752;DHT22;54551;51.068;5.826;2023-01-01T08:34:16;14.60;99.90
67752;DHT22;54551;51.068;5.826;2023-01-01T08:36:42;14.60;99.90
67752;DHT22;54551;51.068;5.826;2023-01-01T08:39:08;14.60;99.90
67752;DHT22;54551;51.068;5.826;2023-01-01T08:41:35;14.60;99.90
67752;DHT22;54551;51.068;5.826;2023-01-01T08:44:01;14.60;99.90
67752;DHT22;54551;51.068;5.826;2023-01-01T08:46:27;14.60;99.90
67752;DHT22;54551;51.068;5.826;2023-01-01T08:48:53;14.70;99.90
67752;DHT22;54551;51.068;5.826;2023-01-01T08:51:19;14.70;99.90
67752;DHT22;54551;51.068;5.826;2023-01-01T08:53:45;14.70;99.90
67752;DHT22;54551;51.068;5.826;2023-01-01T08:56:12;14.70;99.90
67752;DHT22;54551;51.068;5.826;2023-01-01T08:58:41;14.70;99.90
67752;DHT22;54551;51.068;5.826;2023-01-01T09:01:08;14.70;99.90
67752;DHT22;54551;51.068;5.826;2023-01-01T09:03:34;14.70;99.90
67752;DHT22;54551;51.068;5.826;2023-01-01T09:06:00;14.70;99.90
67752;DHT22;54551;51.068;5.826;2023-01-01T09:08:26;14.80;99.90
67752;DHT22;54551;51.068;5.826;2023-01-01T09:10:57;14.80;99.90
67752;DHT22;54551;51.068;5.826;2023-01-01T09:13:23;14.80;99.90
67752;DHT22;54551;51.068;5.826;2023-01-01T09:15:49;14.80;99.90
67752;DHT22;54551;51.068;5.826;2023-01-01T09:18:15;14.90;99.90
67752;DHT22;54551;51.068;5.826;2023-01-01T09:20:41;14.90;99.90
67752;DHT22;54551;51.068;5.826;2023-01-01T09:23:07;14.90;99.90
67752;DHT22;54551;51.068;5.826;2023-01-01T09:25:33;15.00;99.90
67752;DHT22;54551;51.068;5.826;2023-01-01T09:28:05;15.00;99.90
67752;DHT22;54551;51.068;5.826;2023-01-01T09:30:32;15.00;99.90
67752;DHT22;54551;51.068;5.826;2023-01-01T09:32:58;15.00;99.90
67752;DHT22;54551;51.068;5.826;2023-01-01T09:35:24;15.00;99.90
67752;DHT22;54551;51.068;5.826;2023-01-01T09:37:50;15.00;99.90
67752;DHT22;54551;51.068;5.826;2023-01-01T09:40:59;15.00;99.90
67752;DHT22;54551;51.068;5.826;2023-01-01T09:46:04;14.90;99.90
67752;DHT22;54551;51.068;5.826;2023-01-01T09:48:32;15.00;99.90
67752;DHT22;54551;51.068;5.826;2023-01-01T09:51:04;15.00;99.90
67752;DHT22;54551;51.068;5.826;2023-01-01T09:53:58;15.00;99.90
67752;DHT22;54551;51.068;5.826;2023-01-01T09:56:27;15.00;99.90
67752;DHT22;54551;51.068;5.826;2023-01-01T09:58:56;15.00;99.90
67752;DHT22;54551;51.068;5.826;2023-01-01T10:01:37;15.10;99.90
67752;DHT22;54551;51.068;5.826;2023-01-01T10:04:53;15.10;99.90
67752;DHT22;54551;51.068;5.826;2023-01-01T10:07:33;15.10;99.90
67752;DHT22;54551;51.068;5.826;2023-01-01T10:12:44;15.20;99.90
67752;DHT22;54551;51.068;5.826;2023-01-01T10:15:28;15.20;99.90
67752;DHT22;54551;51.068;5.826;2023-01-01T10:18:02;15.30;99.90
67752;DHT22;54551;51.068;5.826;2023-01-01T10:23:21;15.30;99.90
67752;DHT22;54551;51.068;5.826;2023-01-01T10:25:48;15.30;99.90
67752;DHT22;54551;51.068;5.826;2023-01-01T10:30:43;15.30;99.90
67752;DHT22;54551;51.068;5.826;2023-01-01T10:33:13;15.30;99.90
67752;DHT22;54551;51.068;5.826;2023-01-01T10:35:43;15.40;99.90
67752;DHT22;54551;51.068;5.826;2023-01-01T10:38:24;15.40;99.90
67752;DHT22;54551;51.068;5.826;2023-01-01T10:40:52;15.50;99.90
67752;DHT22;54551;51.068;5.826;2023-01-01T10:43:20;15.50;99.90
67752;DHT22;54551;51.068;5.826;2023-01-01T10:45:50;15.50;99.90
67752;DHT22;54551;51.068;5.826;2023-01-01T10:48:24;15.50;99.90
67752;DHT22;54551;51.068;5.826;2023-01-01T10:50:54;15.60;99.90
67752;DHT22;54551;51.068;5.826;2023-01-01T10:53:49;15.60;99.90
67752;DHT22;54551;51.068;5.826;2023-01-01T10:56:21;15.60;99.90
67752;DHT22;54551;51.068;5.826;2023-01-01T10:58:55;15.80;99.90
67752;DHT22;54551;51.068;5.826;2023-01-01T11:01:24;16.00;99.90
67752;DHT22;54551;51.068;5.826;2023-01-01T11:04:02;16.20;99.90
67752;DHT22;54551;51.068;5.826;2023-01-01T11:06:42;16.30;99.90
67752;DHT22;54551;51.068;5.826;2023-01-01T11:43:17;16.20;99.90
67752;DHT22;54551;51.068;5.826;2023-01-01T11:45:45;16.10;99.90
67752;DHT22;54551;51.068;5.826;2023-01-01T11:48:33;16.10;99.90
67752;DHT22;54551;51.068;5.826;2023-01-01T11:51:01;16.10;99.90
67752;DHT22;54551;51.068;5.826;2023-01-01T11:53:30;16.10;99.90
67752;DHT22;54551;51.068;5.826;2023-01-01T12:04:05;16.00;99.90
67752;DHT22;54551;51.068;5.826;2023-01-01T12:06:54;16.00;99.90
67752;DHT22;54551;51.068;5.826;2023-01-01T12:15:09;15.80;99.90
67752;DHT22;54551;51.068;5.826;2023-01-01T12:17:46;15.70;99.90
67752;DHT22;54551;51.068;5.826;2023-01-01T12:20:20;15.60;99.90
67752;DHT22;54551;51.068;5.826;2023-01-01T12:22:48;15.60;99.90
67752;DHT22;54551;51.068;5.826;2023-01-01T12:25:17;15.60;99.90
67752;DHT22;54551;51.068;5.826;2023-01-01T12:33:42;15.60;99.90
67752;DHT22;54551;51.068;5.826;2023-01-01T12:39:03;15.60;99.90
67752;DHT22;54551;51.068;5.826;2023-01-01T12:47:06;15.60;99.90
67752;DHT22;54551;51.068;5.826;2023-01-01T12:55:39;15.50;99.90
67752;DHT22;54551;51.068;5.826;2023-01-01T12:58:10;15.50;99.90
67752;DHT22;54551;51.068;5.826;2023-01-01T13:00:39;15.50;99.90
67752;DHT22;54551;51.068;5.826;2023-01-01T13:03:29;15.50;99.90
67752;DHT22;54551;51.068;5.826;2023-01-01T13:05:56;15.50;99.90
67752;DHT22;54551;51.068;5.826;2023-01-01T13:08:23;15.50;99.90
67752;DHT22;54551;51.068;5.826;2023-01-01T13:10:55;15.40;99.90
67752;DHT22;54551;51.068;5.826;2023-01-01T13:13:22;15.40;99.90
67752;DHT22;54551;51.068;5.826;2023-01-01T13:15:53;15.40;99.90
67752;DHT22;54551;51.068;5.826;2023-01-01T13:18:20;15.50;99.90
67752;DHT22;54551;51.068;5.826;2023-01-01T13:39:58;15.40;99.90
67752;DHT22;54551;51.068;5.826;2023-01-01T13:42:41;15.40;99.90
67752;DHT22;54551;51.068;5.826;2023-01-01T13:48:17;15.30;99.90
67752;DHT22;54551;51.068;5.826;2023-01-01T13:50:56;15.20;99.90
67752;DHT22;54551;51.068;5.826;2023-01-01T14:02:53;15.20;99.90
67752;DHT22;54551;51.068;5.826;2023-01-01T14:06:18;15.10;99.90
67752;DHT22;54551;51.068;5.826;2023-01-01T14:10:54;15.10;99.90
67752;DHT22;54551;51.068;5.826;2023-01-01T14:13:20;15.10;99.90
67752;DHT22;54551;51.068;5.826;2023-01-01T14:15:55;15.10;99.90
67752;DHT22;54551;51.068;5.826;2023-01-01T14:18:33;15.10;99.90
67752;DHT22;54551;51.068;5.826;2023-01-01T14:20:59;15.10;99.90
67752;DHT22;54551;51.068;5.826;2023-01-01T14:23:32;15.10;99.90
67752;DHT22;54551;51.068;5.826;2023-01-01T14:26:02;15.00;99.90
67752;DHT22;54551;51.068;5.826;2023-01-01T14:28:31;15.00;99.90
67752;DHT22;54551;51.068;5.826;2023-01-01T14:31:00;15.00;99.90
67752;DHT22;54551;51.068;5.826;2023-01-01T14:33:30;15.00;99.90
67752;DHT22;54551;51.068;5.826;2023-01-01T14:35:59;15.00;99.90
67752;DHT22;54551;51.068;5.826;2023-01-01T14:38:27;15.00;99.90
67752;DHT22;54551;51.068;5.826;2023-01-01T14:41:07;15.00;99.90
67752;DHT22;54551;51.068;5.826;2023-01-01T14:43:38;15.00;99.90
67752;DHT22;54551;51.068;5.826;2023-01-01T14:46:06;15.00;99.90
67752;DHT22;54551;51.068;5.826;2023-01-01T14:48:33;15.00;99.90
67752;DHT22;54551;51.068;5.826;2023-01-01T14:50:59;14.90;99.90
67752;DHT22;54551;51.068;5.826;2023-01-01T14:53:31;14.90;99.90
67752;DHT22;54551;51.068;5.826;2023-01-01T14:55:58;14.90;99.90
67752;DHT22;54551;51.068;5.826;2023-01-01T14:58:28;14.80;99.90
67752;DHT22;54551;51.068;5.826;2023-01-01T15:01:13;14.80;99.90
67752;DHT22;54551;51.068;5.826;2023-01-01T15:03:40;14.70;99.90
67752;DHT22;54551;51.068;5.826;2023-01-01T15:06:15;14.70;99.90
67752;DHT22;54551;51.068;5.826;2023-01-01T15:08:48;14.70;99.90
67752;DHT22;54551;51.068;5.826;2023-01-01T15:11:15;14.60;99.90
67752;DHT22;54551;51.068;5.826;2023-01-01T15:13:58;14.60;99.90
67752;DHT22;54551;51.068;5.826;2023-01-01T15:16:24;14.60;99.90
67752;DHT22;54551;51.068;5.826;2023-01-01T15:18:50;14.50;99.90
67752;DHT22;54551;51.068;5.826;2023-01-01T15:23:54;14.40;99.90
67752;DHT22;54551;51.068;5.826;2023-01-01T15:26:30;14.30;99.90
67752;DHT22;54551;51.068;5.826;2023-01-01T15:28:59;14.20;99.90
67752;DHT22;54551;51.068;5.826;2023-01-01T15:31:43;14.10;99.90
67752;DHT22;54551;51.068;5.826;2023-01-01T15:34:30;14.10;99.90
67752;DHT22;54551;51.068;5.826;2023-01-01T15:37:15;14.00;99.90
67752;DHT22;54551;51.068;5.826;2023-01-01T15:39:56;13.90;99.90
67752;DHT22;54551;51.068;5.826;2023-01-01T15:42:37;13.70;99.90
67752;DHT22;54551;51.068;5.826;2023-01-01T15:47:48;13.60;99.90
67752;DHT22;54551;51.068;5.826;2023-01-01T15:50:22;13.50;99.90
67752;DHT22;54551;51.068;5.826;2023-01-01T15:52:51;13.50;99.90
67752;DHT22;54551;51.068;5.826;2023-01-01T15:55:17;13.50;99.90
67752;DHT22;54551;51.068;5.826;2023-01-01T15:57:44;13.50;99.90
67752;DHT22;54551;51.068;5.826;2023-01-01T16:00:22;13.40;99.90
67752;DHT22;54551;51.068;5.826;2023-01-01T16:02:51;13.40;99.90
67752;DHT22;54551;51.068;5.826;2023-01-01T16:05:22;13.40;99.90
67752;DHT22;54551;51.068;5.826;2023-01-01T16:07:59;13.30;99.90
67752;DHT22;54551;51.068;5.826;2023-01-01T16:10:26;13.30;99.90
67752;DHT22;54551;51.068;5.826;2023-01-01T16:12:53;13.30;99.90
67752;DHT22;54551;51.068;5.826;2023-01-01T16:15:19;13.30;99.90
67752;DHT22;54551;51.068;5.826;2023-01-01T16:17:45;13.30;99.90
67752;DHT22;54551;51.068;5.826;2023-01-01T16:20:15;13.20;99.90
67752;DHT22;54551;51.068;5.826;2023-01-01T16:22:42;13.20;99.90
67752;DHT22;54551;51.068;5.826;2023-01-01T16:25:16;13.10;99.90
67752;DHT22;54551;51.068;5.826;2023-01-01T16:27:42;13.10;99.90
67752;DHT22;54551;51.068;5.826;2023-01-01T16:30:09;13.00;99.90
67752;DHT22;54551;51.068;5.826;2023-01-01T16:32:36;13.00;99.90
67752;DHT22;54551;51.068;5.826;2023-01-01T16:35:04;13.00;99.90
67752;DHT22;54551;51.068;5.826;2023-01-01T16:37:31;12.80;99.90
67752;DHT22;54551;51.068;5.826;2023-01-01T16:39:57;12.80;99.90
67752;DHT22;54551;51.068;5.826;2023-01-01T16:42:23;12.80;99.90
67752;DHT22;54551;51.068;5.826;2023-01-01T16:44:50;12.80;99.90
67752;DHT22;54551;51.068;5.826;2023-01-01T16:47:16;12.70;99.90
67752;DHT22;54551;51.068;5.826;2023-01-01T16:49:42;12.70;99.90
67752;DHT22;54551;51.068;5.826;2023-01-01T16:52:09;12.60;99.90
67752;DHT22;54551;51.068;5.826;2023-01-01T16:54:34;12.60;99.90
67752;DHT22;54551;51.068;5.826;2023-01-01T16:57:00;12.60;99.90
67752;DHT22;54551;51.068;5.826;2023-01-01T16:59:26;12.60;99.90
67752;DHT22;54551;51.068;5.826;2023-01-01T17:01:52;12.60;99.90
67752;DHT22;54551;51.068;5.826;2023-01-01T17:04:18;12.50;99.90
67752;DHT22;54551;51.068;5.826;2023-01-01T17:06:44;12.50;99.90
67752;DHT22;54551;51.068;5.826;2023-01-01T17:09:10;12.50;99.90
67752;DHT22;54551;51.068;5.826;2023-01-01T17:11:36;12.40;99.90
67752;DHT22;54551;51.068;5.826;2023-01-01T17:14:03;12.40;99.90
67752;DHT22;54551;51.068;5.826;2023-01-01T17:16:31;12.40;99.90
67752;DHT22;54551;51.068;5.826;2023-01-01T17:18:57;12.40;99.90
67752;DHT22;54551;51.068;5.826;2023-01-01T17:21:23;12.20;99.90
67752;DHT22;54551;51.068;5.826;2023-01-01T17:23:49;12.20;99.90
67752;DHT22;54551;51.068;5.826;2023-01-01T17:26:17;12.20;99.90
67752;DHT22;54551;51.068;5.826;2023-01-01T17:28:46;12.20;99.90
67752;DHT22;54551;51.068;5.826;2023-01-01T17:31:14;12.10;99.90
67752;DHT22;54551;51.068;5.826;2023-01-01T17:33:40;12.10;99.90
67752;DHT22;54551;51.068;5.826;2023-01-01T17:36:08;12.10;99.90
67752;DHT22;54551;51.068;5.826;2023-01-01T17:38:34;12.10;99.90
67752;DHT22;54551;51.068;5.826;2023-01-01T17:41:09;12.20;99.90
67752;DHT22;54551;51.068;5.826;2023-01-01T17:43:38;12.10;99.90
67752;DHT22;54551;51.068;5.826;2023-01-01T17:46:07;12.10;99.90
67752;DHT22;54551;51.068;5.826;2023-01-01T17:48:33;12.00;99.90
67752;DHT22;54551;51.068;5.826;2023-01-01T17:50:59;12.10;99.90
67752;DHT22;54551;51.068;5.826;2023-01-01T17:53:25;12.10;99.90
67752;DHT22;54551;51.068;5.826;2023-01-01T17:55:51;12.10;99.90
67752;DHT22;54551;51.068;5.826;2023-01-01T17:58:17;12.10;99.90
67752;DHT22;54551;51.068;5.826;2023-01-01T18:00:43;12.20;99.90
67752;DHT22;54551;51.068;5.826;2023-01-01T18:03:12;12.20;99.90
67752;DHT22;54551;51.068;5.826;2023-01-01T18:05:38;12.30;99.90
67752;DHT22;54551;51.068;5.826;2023-01-01T18:08:05;12.30;99.90
67752;DHT22;54551;51.068;5.826;2023-01-01T18:10:31;12.20;99.90
67752;DHT22;54551;51.068;5.826;2023-01-01T18:12:57;12.20;99.90
67752;DHT22;54551;51.068;5.826;2023-01-01T18:15:23;12.20;99.90
67752;DHT22;54551;51.068;5.826;2023-01-01T18:17:49;12.20;99.90
67752;DHT22;54551;51.068;5.826;2023-01-01T18:20:15;12.30;99.90